Time;durP1;ratioP1;P1;durP2;ratioP2;P2;SDS_P1;SDS_P2;PMS_P1;PMS_P2;Temp;Humidity;BMP_temperature;BMP_pressure;BME280_temperature;BME280_humidity;BME280_pressure;Samples;Min_cycle;Max_cycle;Signal;HPM_P1;HPM_P2
2023/08/28 00:00:26;;;;;;;11.40;10.90;;;;;;;;;;5078601;28;20024;-63
2023/08/28 00:02:52;;;;;;;11.27;10.77;;;;;;;;;;5080415;28;20296;-62
2023/08/28 00:05:17;;;;;;;11.35;10.85;;;;;;;;;;5085377;28;20065;-62
2023/08/28 00:07:42;;;;;;;11.43;10.93;;;;;;;;;;5087821;28;20084;-63
2023/08/28 00:10:08;;;;;;;11.35;10.85;;;;;;;;;;5077392;28;20335;-62
2023/08/28 00:12:36;;;;;;;11.68;11.18;;;;;;;;;;5080521;28;20020;-62
2023/08/28 00:15:02;;;;;;;11.60;11.10;;;;;;;;;;5090014;28;20028;-61
2023/08/28 00:17:27;;;;;;;11.65;11.15;;;;;;;;;;5084834;28;20024;-61
2023/08/28 00:19:53;;;;;;;11.30;10.80;;;;;;;;;;5090198;28;20028;-63
2023/08/28 00:22:19;;;;;;;11.30;10.80;;;;;;;;;;5086508;28;20475;-63
2023/08/28 00:24:44;;;;;;;11.52;11.02;;;;;;;;;;5088588;28;20542;-63
2023/08/28 00:27:09;;;;;;;11.80;11.30;;;;;;;;;;5082310;28;20110;-62
2023/08/28 00:29:35;;;;;;;11.70;11.20;;;;;;;;;;5082233;28;20061;-62
2023/08/28 00:32:00;;;;;;;11.23;10.73;;;;;;;;;;5084293;28;20736;-61
2023/08/28 00:34:25;;;;;;;10.97;10.47;;;;;;;;;;5083001;28;20471;-62
2023/08/28 00:36:50;;;;;;;11.57;11.07;;;;;;;;;;5085403;28;20313;-62
2023/08/28 00:39:16;;;;;;;11.50;11.00;;;;;;;;;;5088207;28;20264;-62
2023/08/28 00:41:41;;;;;;;11.63;11.13;;;;;;;;;;5079973;28;20028;-62
2023/08/28 00:44:07;;;;;;;11.32;10.82;;;;;;;;;;5085571;28;20052;-62
2023/08/28 00:46:33;;;;;;;11.80;11.30;;;;;;;;;;5085748;28;20028;-63
2023/08/28 00:48:58;;;;;;;11.80;11.30;;;;;;;;;;5084572;28;20082;-63
2023/08/28 00:51:23;;;;;;;11.98;11.48;;;;;;;;;;5081004;28;20012;-62
2023/08/28 00:53:49;;;;;;;11.45;10.95;;;;;;;;;;5082607;28;20028;-61
2023/08/28 00:56:14;;;;;;;11.83;11.33;;;;;;;;;;5081197;28;20079;-61
2023/08/28 00:58:40;;;;;;;11.73;11.23;;;;;;;;;;5088880;28;20249;-62
2023/08/28 01:01:05;;;;;;;11.65;11.15;;;;;;;;;;5083511;28;20059;-62
2023/08/28 01:03:30;;;;;;;11.57;11.07;;;;;;;;;;5083786;28;20098;-63
2023/08/28 01:06:05;;;;;;;11.50;11.00;;;;;;;;;;5081623;28;20471;-62
2023/08/28 01:08:38;;;;;;;11.45;10.95;;;;;;;;;;5085138;28;20240;-62
2023/08/28 01:11:08;;;;;;;11.70;11.20;;;;;;;;;;5078524;28;20031;-62
2023/08/28 01:13:41;;;;;;;11.77;11.27;;;;;;;;;;5083091;28;20035;-63
2023/08/28 01:16:06;;;;;;;11.30;10.80;;;;;;;;;;5086968;28;20073;-62
2023/08/28 01:18:32;;;;;;;11.52;11.02;;;;;;;;;;5087035;28;20386;-62
2023/08/28 01:20:58;;;;;;;11.20;10.70;;;;;;;;;;5088510;28;20505;-62
2023/08/28 01:23:27;;;;;;;11.55;11.05;;;;;;;;;;5092501;28;20032;-62
2023/08/28 01:25:56;;;;;;;11.30;10.80;;;;;;;;;;5083515;28;20080;-63
2023/08/28 01:28:23;;;;;;;11.48;10.98;;;;;;;;;;5082985;28;20552;-62
2023/08/28 01:30:51;;;;;;;11.90;11.40;;;;;;;;;;5084659;28;20491;-63
2023/08/28 01:33:16;;;;;;;11.77;11.27;;;;;;;;;;5083665;28;20029;-62
2023/08/28 01:35:42;;;;;;;11.70;11.20;;;;;;;;;;5082140;28;20450;-63
2023/08/28 01:38:19;;;;;;;11.73;11.23;;;;;;;;;;5089293;28;20023;-62
2023/08/28 01:40:56;;;;;;;11.50;11.00;;;;;;;;;;5087131;28;20024;-63
2023/08/28 01:43:23;;;;;;;11.60;11.10;;;;;;;;;;5090473;28;20082;-62
2023/08/28 01:45:52;;;;;;;11.30;10.80;;;;;;;;;;5084532;28;20495;-62
2023/08/28 01:48:17;;;;;;;11.13;10.63;;;;;;;;;;5086373;28;20399;-62
2023/08/28 01:50:43;;;;;;;11.30;10.80;;;;;;;;;;5092121;28;20035;-61
2023/08/28 01:53:08;;;;;;;11.25;10.75;;;;;;;;;;5084444;28;20054;-62
2023/08/28 01:55:45;;;;;;;11.70;11.20;;;;;;;;;;5091354;28;20020;-63
2023/08/28 01:58:14;;;;;;;11.55;11.05;;;;;;;;;;5086406;28;20024;-61
2023/08/28 02:00:39;;;;;;;12.05;11.55;;;;;;;;;;5088763;28;20024;-61
2023/08/28 02:03:05;;;;;;;11.82;11.32;;;;;;;;;;5086581;28;20060;-62
2023/08/28 02:05:30;;;;;;;12.18;11.68;;;;;;;;;;5088346;28;20028;-62
2023/08/28 02:07:56;;;;;;;11.45;10.95;;;;;;;;;;5085417;28;20024;-62
2023/08/28 02:10:21;;;;;;;12.10;11.60;;;;;;;;;;5084076;28;20020;-62
2023/08/28 02:12:46;;;;;;;11.68;11.18;;;;;;;;;;5081086;28;20082;-61
2023/08/28 02:15:12;;;;;;;11.82;11.32;;;;;;;;;;5091202;28;20028;-62
2023/08/28 02:17:37;;;;;;;11.48;10.98;;;;;;;;;;5083737;28;20028;-62
2023/08/28 02:20:02;;;;;;;11.88;11.38;;;;;;;;;;5085854;28;20043;-63
2023/08/28 02:22:28;;;;;;;11.60;11.10;;;;;;;;;;5080495;28;20024;-62
2023/08/28 02:24:53;;;;;;;11.68;11.18;;;;;;;;;;5089656;28;20028;-63
2023/08/28 02:27:18;;;;;;;11.68;11.18;;;;;;;;;;5082592;28;20017;-61
2023/08/28 02:29:44;;;;;;;11.90;11.40;;;;;;;;;;5085825;28;20027;-62
2023/08/28 02:32:09;;;;;;;11.10;10.60;;;;;;;;;;5085806;28;20013;-61
2023/08/28 02:34:34;;;;;;;11.60;11.10;;;;;;;;;;5087343;28;20803;-63
2023/08/28 02:36:59;;;;;;;11.93;11.43;;;;;;;;;;5084003;28;20070;-62
2023/08/28 02:39:25;;;;;;;11.52;11.02;;;;;;;;;;5084228;28;20108;-62
2023/08/28 02:41:50;;;;;;;11.77;11.27;;;;;;;;;;5087657;28;20487;-62
2023/08/28 02:44:15;;;;;;;12.07;11.57;;;;;;;;;;5080162;28;20502;-62
2023/08/28 02:46:42;;;;;;;11.53;11.03;;;;;;;;;;5088020;28;20026;-62
2023/08/28 02:49:07;;;;;;;11.45;10.95;;;;;;;;;;5084854;28;20260;-62
2023/08/28 02:51:33;;;;;;;11.77;11.27;;;;;;;;;;5091632;28;20042;-61
2023/08/28 02:53:58;;;;;;;11.63;11.13;;;;;;;;;;5089289;28;20016;-62
2023/08/28 02:56:25;;;;;;;11.70;11.20;;;;;;;;;;5085781;28;20031;-62
2023/08/28 02:58:51;;;;;;;11.88;11.38;;;;;;;;;;5083834;28;20024;-62
2023/08/28 03:01:17;;;;;;;11.60;11.10;;;;;;;;;;5084921;28;20041;-60
2023/08/28 03:03:43;;;;;;;11.55;11.05;;;;;;;;;;5080502;28;20056;-63
2023/08/28 03:06:08;;;;;;;12.05;11.55;;;;;;;;;;5079677;28;20177;-61
2023/08/28 03:08:33;;;;;;;11.50;11.00;;;;;;;;;;5083944;28;20031;-61
2023/08/28 03:10:58;;;;;;;11.75;11.25;;;;;;;;;;5087942;28;20339;-61
2023/08/28 03:13:24;;;;;;;11.57;11.07;;;;;;;;;;5087196;28;20032;-63
2023/08/28 03:15:49;;;;;;;11.15;10.65;;;;;;;;;;5088056;28;20043;-62
2023/08/28 03:18:15;;;;;;;11.57;11.07;;;;;;;;;;5079693;28;20020;-62
2023/08/28 03:20:41;;;;;;;11.55;11.05;;;;;;;;;;5081114;28;20127;-61
2023/08/28 03:23:09;;;;;;;11.80;11.30;;;;;;;;;;5085868;28;20399;-61
2023/08/28 03:25:34;;;;;;;11.40;10.90;;;;;;;;;;5089314;28;20028;-62
2023/08/28 03:28:01;;;;;;;11.75;11.25;;;;;;;;;;5090380;28;20020;-61
2023/08/28 03:30:27;;;;;;;11.57;11.07;;;;;;;;;;5084446;28;20020;-61
2023/08/28 03:32:52;;;;;;;11.85;11.35;;;;;;;;;;5082503;28;20114;-62
2023/08/28 03:35:18;;;;;;;11.90;11.40;;;;;;;;;;5087626;28;20024;-61
2023/08/28 03:37:44;;;;;;;11.60;11.10;;;;;;;;;;5081829;28;20107;-62
2023/08/28 03:40:09;;;;;;;11.85;11.35;;;;;;;;;;5091728;28;20035;-62
2023/08/28 03:42:34;;;;;;;11.80;11.30;;;;;;;;;;5080378;28;20109;-63
2023/08/28 03:45:00;;;;;;;11.27;10.77;;;;;;;;;;5082167;28;20020;-62
2023/08/28 03:47:25;;;;;;;11.55;11.05;;;;;;;;;;5085607;28;20376;-63
2023/08/28 03:49:50;;;;;;;11.57;11.07;;;;;;;;;;5087404;28;20024;-63
2023/08/28 03:52:15;;;;;;;11.90;11.40;;;;;;;;;;5085121;28;20257;-61
2023/08/28 03:54:41;;;;;;;11.80;11.30;;;;;;;;;;5085109;28;20804;-62
2023/08/28 03:57:06;;;;;;;11.68;11.18;;;;;;;;;;5083976;28;20028;-62
2023/08/28 03:59:31;;;;;;;11.75;11.25;;;;;;;;;;5086518;28;20380;-62
2023/08/28 04:01:57;;;;;;;11.73;11.23;;;;;;;;;;5083967;28;20071;-62
2023/08/28 04:04:22;;;;;;;11.93;11.43;;;;;;;;;;5087196;28;20035;-62
2023/08/28 04:06:48;;;;;;;11.40;10.90;;;;;;;;;;5082087;28;20054;-62
2023/08/28 04:09:14;;;;;;;11.82;11.32;;;;;;;;;;5086976;28;20016;-61
2023/08/28 04:11:40;;;;;;;11.75;11.25;;;;;;;;;;5087525;28;20016;-61
2023/08/28 04:14:05;;;;;;;11.65;11.15;;;;;;;;;;5086235;28;20034;-62
2023/08/28 04:16:30;;;;;;;11.90;11.40;;;;;;;;;;5080643;28;20059;-63
2023/08/28 04:18:56;;;;;;;11.90;11.40;;;;;;;;;;5085302;28;20129;-62
2023/08/28 04:21:21;;;;;;;12.20;11.70;;;;;;;;;;5076942;28;20082;-62
2023/08/28 04:23:46;;;;;;;11.75;11.25;;;;;;;;;;5086475;28;20421;-64
2023/08/28 04:26:12;;;;;;;12.00;11.50;;;;;;;;;;5080996;28;20431;-62
2023/08/28 04:28:37;;;;;;;11.63;11.13;;;;;;;;;;5082950;28;20249;-63
2023/08/28 04:31:03;;;;;;;12.02;11.52;;;;;;;;;;5078214;28;20029;-63
2023/08/28 04:33:29;;;;;;;11.82;11.32;;;;;;;;;;5081870;28;20021;-63
2023/08/28 04:35:54;;;;;;;11.95;11.45;;;;;;;;;;5088845;28;20487;-62
2023/08/28 04:38:19;;;;;;;12.07;11.57;;;;;;;;;;5084761;28;20028;-64
2023/08/28 04:40:45;;;;;;;11.93;11.43;;;;;;;;;;5078674;28;20036;-63
2023/08/28 04:43:10;;;;;;;11.93;11.43;;;;;;;;;;5078599;28;20058;-62
2023/08/28 04:45:35;;;;;;;11.85;11.35;;;;;;;;;;5084421;28;20052;-62
2023/08/28 04:48:00;;;;;;;12.07;11.57;;;;;;;;;;5082610;28;20020;-63
2023/08/28 04:50:27;;;;;;;11.83;11.33;;;;;;;;;;5092212;28;20008;-62
2023/08/28 04:52:52;;;;;;;12.15;11.65;;;;;;;;;;5081476;28;20269;-63
2023/08/28 04:55:17;;;;;;;12.10;11.60;;;;;;;;;;5088171;28;20043;-63
2023/08/28 04:57:43;;;;;;;12.13;11.63;;;;;;;;;;5081244;28;20332;-62
2023/08/28 05:00:08;;;;;;;11.70;11.20;;;;;;;;;;5086233;28;20686;-58
2023/08/28 05:02:34;;;;;;;12.00;11.50;;;;;;;;;;5082330;28;20047;-59
2023/08/28 05:04:59;;;;;;;12.00;11.50;;;;;;;;;;5081357;28;20438;-59
2023/08/28 05:07:25;;;;;;;12.35;11.85;;;;;;;;;;5080990;28;20066;-60
2023/08/28 05:09:50;;;;;;;12.15;11.65;;;;;;;;;;5083787;28;20045;-60
2023/08/28 05:12:15;;;;;;;11.98;11.48;;;;;;;;;;5089808;28;20027;-60
2023/08/28 05:14:41;;;;;;;12.00;11.50;;;;;;;;;;5084582;28;20055;-60
2023/08/28 05:17:06;;;;;;;12.17;11.67;;;;;;;;;;5086212;28;20268;-59
2023/08/28 05:19:31;;;;;;;12.13;11.63;;;;;;;;;;5086730;28;20249;-59
2023/08/28 05:21:57;;;;;;;12.00;11.50;;;;;;;;;;5084500;28;20023;-60
2023/08/28 05:24:23;;;;;;;11.80;11.30;;;;;;;;;;5089882;28;20279;-60
2023/08/28 05:26:48;;;;;;;11.98;11.48;;;;;;;;;;5087228;28;20812;-60
2023/08/28 05:29:14;;;;;;;12.00;11.50;;;;;;;;;;5089376;28;20098;-60
2023/08/28 05:31:39;;;;;;;12.07;11.57;;;;;;;;;;5089019;28;20022;-60
2023/08/28 05:34:04;;;;;;;12.05;11.55;;;;;;;;;;5084051;28;20057;-59
2023/08/28 05:36:30;;;;;;;12.20;11.70;;;;;;;;;;5086903;28;20032;-60
2023/08/28 05:38:55;;;;;;;12.50;11.90;;;;;;;;;;5084339;28;20020;-60
2023/08/28 05:41:20;;;;;;;12.10;11.60;;;;;;;;;;5084794;28;20079;-59
2023/08/28 05:43:46;;;;;;;11.87;11.37;;;;;;;;;;5089011;28;20463;-60
2023/08/28 05:46:11;;;;;;;12.27;11.77;;;;;;;;;;5086692;28;20054;-59
2023/08/28 05:48:36;;;;;;;12.27;11.77;;;;;;;;;;5086041;28;21505;-59
2023/08/28 05:51:03;;;;;;;12.27;11.77;;;;;;;;;;5084864;28;20030;-60
2023/08/28 05:53:29;;;;;;;11.95;11.45;;;;;;;;;;5087903;28;20020;-59
2023/08/28 05:55:54;;;;;;;12.70;12.10;;;;;;;;;;5090767;28;20031;-59
2023/08/28 05:58:20;;;;;;;12.15;11.65;;;;;;;;;;5086782;28;20105;-60
2023/08/28 06:00:45;;;;;;;12.30;11.80;;;;;;;;;;5086099;28;20028;-59
2023/08/28 06:03:11;;;;;;;12.57;11.98;;;;;;;;;;5079865;28;20048;-59
2023/08/28 06:05:38;;;;;;;12.10;11.60;;;;;;;;;;5088290;28;20042;-61
2023/08/28 06:08:03;;;;;;;12.18;11.68;;;;;;;;;;5084748;28;20813;-60
2023/08/28 06:10:29;;;;;;;12.20;11.70;;;;;;;;;;5083950;28;20020;-59
2023/08/28 06:12:57;;;;;;;12.37;11.87;;;;;;;;;;5081684;28;20099;-58
2023/08/28 06:15:23;;;;;;;12.65;12.05;;;;;;;;;;5085184;28;20307;-58
2023/08/28 06:17:53;;;;;;;12.50;11.95;;;;;;;;;;5088959;28;20198;-60
2023/08/28 06:20:19;;;;;;;12.23;11.73;;;;;;;;;;5088416;28;20464;-58
2023/08/28 06:22:44;;;;;;;12.00;11.50;;;;;;;;;;5085263;28;20052;-59
2023/08/28 06:25:09;;;;;;;12.15;11.65;;;;;;;;;;5083872;28;20026;-60
2023/08/28 06:27:35;;;;;;;12.13;11.63;;;;;;;;;;5084459;28;20016;-59
2023/08/28 06:30:00;;;;;;;12.40;11.87;;;;;;;;;;5087302;28;20623;-60
2023/08/28 06:32:25;;;;;;;12.35;11.85;;;;;;;;;;5082641;28;20129;-59
2023/08/28 06:34:51;;;;;;;12.20;11.70;;;;;;;;;;5088123;28;20108;-59
2023/08/28 06:37:16;;;;;;;12.20;11.70;;;;;;;;;;5087572;28;20475;-60
2023/08/28 06:39:41;;;;;;;12.37;11.87;;;;;;;;;;5084031;28;20008;-60
2023/08/28 06:42:07;;;;;;;12.25;11.75;;;;;;;;;;5087318;28;20092;-59
2023/08/28 06:44:32;;;;;;;12.00;11.50;;;;;;;;;;5084580;28;20016;-59
2023/08/28 06:46:57;;;;;;;12.10;11.60;;;;;;;;;;5085427;28;20027;-58
2023/08/28 06:49:23;;;;;;;11.90;11.40;;;;;;;;;;5087710;28;20253;-58
2023/08/28 06:51:48;;;;;;;11.63;11.13;;;;;;;;;;5088676;28;20024;-60
2023/08/28 06:54:13;;;;;;;11.95;11.45;;;;;;;;;;5086847;28;20032;-58
2023/08/28 06:56:39;;;;;;;12.00;11.50;;;;;;;;;;5087090;28;20073;-60
2023/08/28 06:59:04;;;;;;;11.90;11.40;;;;;;;;;;5084096;28;20024;-60
2023/08/28 07:01:29;;;;;;;12.23;11.73;;;;;;;;;;5076796;28;20098;-60
2023/08/28 07:03:55;;;;;;;11.80;11.30;;;;;;;;;;5082050;28;20334;-62
2023/08/28 07:06:20;;;;;;;11.93;11.43;;;;;;;;;;5084131;28;20017;-61
2023/08/28 07:08:46;;;;;;;12.00;11.50;;;;;;;;;;5080573;28;20399;-61
2023/08/28 07:11:11;;;;;;;11.95;11.45;;;;;;;;;;5082733;28;20066;-63
2023/08/28 07:13:37;;;;;;;11.80;11.30;;;;;;;;;;5083521;28;20020;-61
2023/08/28 07:16:02;;;;;;;11.98;11.48;;;;;;;;;;5081465;28;20268;-62
2023/08/28 07:18:27;;;;;;;12.00;11.50;;;;;;;;;;5082421;28;20020;-62
2023/08/28 07:20:53;;;;;;;12.20;11.70;;;;;;;;;;5082049;28;20026;-62
2023/08/28 07:23:18;;;;;;;11.90;11.40;;;;;;;;;;5082714;28;20704;-60
2023/08/28 07:25:44;;;;;;;12.10;11.60;;;;;;;;;;5084970;28;20027;-59
2023/08/28 07:28:09;;;;;;;12.27;11.77;;;;;;;;;;5078318;28;20020;-59
2023/08/28 07:30:35;;;;;;;12.13;11.63;;;;;;;;;;5081542;28;20655;-60
2023/08/28 07:33:00;;;;;;;12.45;11.90;;;;;;;;;;5080135;28;20028;-61
2023/08/28 07:35:29;;;;;;;12.52;11.95;;;;;;;;;;5080009;28;20032;-70
2023/08/28 07:37:54;;;;;;;12.15;11.65;;;;;;;;;;5084325;28;20030;-70
2023/08/28 07:40:19;;;;;;;12.60;12.00;;;;;;;;;;5081169;28;20016;-66
2023/08/28 07:42:45;;;;;;;12.20;11.70;;;;;;;;;;5081454;28;20272;-64
2023/08/28 07:45:10;;;;;;;12.70;12.10;;;;;;;;;;5079529;28;20024;-66
2023/08/28 07:47:35;;;;;;;12.10;11.60;;;;;;;;;;5083745;28;20458;-67
2023/08/28 07:50:01;;;;;;;12.93;12.33;;;;;;;;;;5077658;28;20016;-65
2023/08/28 07:52:26;;;;;;;11.93;11.43;;;;;;;;;;5078454;28;20488;-66
2023/08/28 07:54:51;;;;;;;12.40;11.87;;;;;;;;;;5080846;28;20630;-67
2023/08/28 07:57:17;;;;;;;12.30;11.80;;;;;;;;;;5080426;28;20480;-66
2023/08/28 07:59:42;;;;;;;12.02;11.52;;;;;;;;;;5078809;28;20028;-63
2023/08/28 08:02:07;;;;;;;11.83;11.33;;;;;;;;;;5084486;28;20090;-70
2023/08/28 08:04:33;;;;;;;12.20;11.70;;;;;;;;;;5086840;28;20059;-66
2023/08/28 08:06:58;;;;;;;12.07;11.57;;;;;;;;;;5081370;28;20032;-66
2023/08/28 08:09:24;;;;;;;11.97;11.47;;;;;;;;;;5080608;28;20023;-66
2023/08/28 08:11:49;;;;;;;12.23;11.73;;;;;;;;;;5081097;28;20020;-65
2023/08/28 08:14:14;;;;;;;11.93;11.43;;;;;;;;;;5077667;28;20008;-65
2023/08/28 08:16:39;;;;;;;12.00;11.50;;;;;;;;;;5077835;28;20761;-66
2023/08/28 08:19:05;;;;;;;11.93;11.43;;;;;;;;;;5078326;28;20048;-66
2023/08/28 08:21:30;;;;;;;11.90;11.40;;;;;;;;;;5081072;28;20491;-66
2023/08/28 08:23:55;;;;;;;11.97;11.47;;;;;;;;;;5078749;28;20114;-65
2023/08/28 08:26:21;;;;;;;11.77;11.27;;;;;;;;;;5072886;28;20031;-67
2023/08/28 08:28:46;;;;;;;11.82;11.32;;;;;;;;;;5081810;28;20028;-66
2023/08/28 08:31:12;;;;;;;11.32;10.82;;;;;;;;;;5081643;28;20367;-65
2023/08/28 08:33:38;;;;;;;11.53;11.03;;;;;;;;;;5083129;28;20023;-64
2023/08/28 08:36:03;;;;;;;11.70;11.20;;;;;;;;;;5082474;28;20237;-64
2023/08/28 08:38:29;;;;;;;11.70;11.20;;;;;;;;;;5077422;28;20028;-67
2023/08/28 08:40:55;;;;;;;11.70;11.20;;;;;;;;;;5077999;28;20367;-63
2023/08/28 08:43:21;;;;;;;12.07;11.57;;;;;;;;;;5078353;28;20267;-64
2023/08/28 08:45:47;;;;;;;11.65;11.15;;;;;;;;;;5079549;28;20103;-66
2023/08/28 08:48:16;;;;;;;11.77;11.27;;;;;;;;;;5075920;28;20021;-67
2023/08/28 08:50:42;;;;;;;11.90;11.40;;;;;;;;;;5076024;28;20124;-65
2023/08/28 08:53:16;;;;;;;11.88;11.38;;;;;;;;;;5077452;28;20024;-66
2023/08/28 08:55:46;;;;;;;12.00;11.50;;;;;;;;;;5077037;28;20044;-65
2023/08/28 08:58:13;;;;;;;11.90;11.40;;;;;;;;;;5078125;28;20502;-65
2023/08/28 09:00:43;;;;;;;11.60;11.10;;;;;;;;;;5080760;28;20036;-65
2023/08/28 09:03:09;;;;;;;11.32;10.82;;;;;;;;;;5076501;28;20511;-67
2023/08/28 09:05:38;;;;;;;11.85;11.35;;;;;;;;;;5080802;28;20035;-67
2023/08/28 09:08:05;;;;;;;11.98;11.48;;;;;;;;;;5077466;28;20031;-68
2023/08/28 09:10:30;;;;;;;11.88;11.38;;;;;;;;;;5076430;28;20056;-68
2023/08/28 09:12:55;;;;;;;11.82;11.32;;;;;;;;;;5080101;28;20111;-69
2023/08/28 09:15:21;;;;;;;12.02;11.52;;;;;;;;;;5076223;28;21716;-65
2023/08/28 09:17:46;;;;;;;11.77;11.27;;;;;;;;;;5075640;28;20558;-65
2023/08/28 09:20:16;;;;;;;12.10;11.60;;;;;;;;;;5074289;28;20063;-67
2023/08/28 09:22:48;;;;;;;11.63;11.13;;;;;;;;;;5074321;28;20111;-69
2023/08/28 09:25:17;;;;;;;11.90;11.40;;;;;;;;;;5073648;28;20090;-69
2023/08/28 09:27:44;;;;;;;11.55;11.05;;;;;;;;;;5072408;28;20031;-69
2023/08/28 09:30:10;;;;;;;11.75;11.25;;;;;;;;;;5077950;28;20107;-70
2023/08/28 09:32:43;;;;;;;11.73;11.23;;;;;;;;;;5072325;28;20029;-68
2023/08/28 09:35:09;;;;;;;11.60;11.10;;;;;;;;;;5074771;28;20078;-68
2023/08/28 09:37:34;;;;;;;11.77;11.27;;;;;;;;;;5085873;28;20027;-69
2023/08/28 09:40:00;;;;;;;11.90;11.40;;;;;;;;;;5081742;28;20024;-69
2023/08/28 09:42:26;;;;;;;11.48;10.98;;;;;;;;;;5081518;28;20272;-69
2023/08/28 09:44:51;;;;;;;11.37;10.87;;;;;;;;;;5079820;28;20430;-69
2023/08/28 09:47:23;;;;;;;11.70;11.20;;;;;;;;;;5080992;28;20261;-69
2023/08/28 09:49:51;;;;;;;11.50;11.00;;;;;;;;;;5076445;28;20168;-69
2023/08/28 09:52:24;;;;;;;11.70;11.20;;;;;;;;;;5076557;28;20021;-63
2023/08/28 09:54:59;;;;;;;11.35;10.85;;;;;;;;;;5079478;28;20051;-64
2023/08/28 09:57:25;;;;;;;11.80;11.30;;;;;;;;;;5079132;28;20622;-65
2023/08/28 09:59:50;;;;;;;11.70;11.20;;;;;;;;;;5077268;28;20209;-65
2023/08/28 10:02:20;;;;;;;11.60;11.10;;;;;;;;;;5079254;28;20054;-65
2023/08/28 10:04:46;;;;;;;11.77;11.27;;;;;;;;;;5079469;28;20031;-67
2023/08/28 10:07:12;;;;;;;11.50;11.00;;;;;;;;;;5080099;28;20235;-66
2023/08/28 10:09:43;;;;;;;11.65;11.15;;;;;;;;;;5077215;28;20551;-65
2023/08/28 10:12:09;;;;;;;11.60;11.10;;;;;;;;;;5096785;27;20028;-67
2023/08/28 10:14:35;;;;;;;11.50;11.00;;;;;;;;;;5076519;28;20828;-66
2023/08/28 10:17:03;;;;;;;11.65;11.15;;;;;;;;;;5081927;28;20129;-65
2023/08/28 10:19:52;;;;;;;11.63;11.13;;;;;;;;;;5084599;28;20027;-65
2023/08/28 10:22:18;;;;;;;11.55;11.05;;;;;;;;;;5076858;28;20146;-64
2023/08/28 10:24:44;;;;;;;12.00;11.50;;;;;;;;;;5077682;28;20356;-65
2023/08/28 10:27:10;;;;;;;11.60;11.10;;;;;;;;;;5077260;28;20168;-64
2023/08/28 10:29:37;;;;;;;11.85;11.35;;;;;;;;;;5077596;28;20104;-65
2023/08/28 10:32:06;;;;;;;11.48;10.98;;;;;;;;;;5078359;28;20065;-65
2023/08/28 10:34:32;;;;;;;11.60;11.10;;;;;;;;;;5080158;28;20530;-65
2023/08/28 10:36:59;;;;;;;11.57;11.07;;;;;;;;;;5081306;28;20089;-65
2023/08/28 10:39:27;;;;;;;11.80;11.30;;;;;;;;;;5088917;28;20110;-66
2023/08/28 10:41:52;;;;;;;11.60;11.10;;;;;;;;;;5085642;28;20451;-67
2023/08/28 10:44:18;;;;;;;11.65;11.15;;;;;;;;;;5078448;28;20032;-65
2023/08/28 10:46:44;;;;;;;11.63;11.13;;;;;;;;;;5081835;28;20372;-67
2023/08/28 10:49:10;;;;;;;11.50;11.00;;;;;;;;;;5085090;28;20012;-66
2023/08/28 10:51:38;;;;;;;11.77;11.27;;;;;;;;;;5080309;28;20024;-67
2023/08/28 10:54:09;;;;;;;11.57;11.07;;;;;;;;;;5079622;28;20345;-67
2023/08/28 10:56:35;;;;;;;11.80;11.30;;;;;;;;;;5076730;28;20024;-66
2023/08/28 10:59:30;;;;;;;11.80;11.30;;;;;;;;;;5079457;28;20069;-67
2023/08/28 11:01:57;;;;;;;11.48;10.98;;;;;;;;;;5079684;28;20776;-66
2023/08/28 11:04:23;;;;;;;11.77;11.27;;;;;;;;;;5079614;28;20039;-66
2023/08/28 11:06:49;;;;;;;11.80;11.30;;;;;;;;;;5081923;28;20077;-66
2023/08/28 11:09:27;;;;;;;11.70;11.20;;;;;;;;;;5079779;28;20020;-65
2023/08/28 11:12:13;;;;;;;11.85;11.35;;;;;;;;;;5078398;28;20020;-66
2023/08/28 11:14:39;;;;;;;11.73;11.23;;;;;;;;;;5072516;28;20032;-66
2023/08/28 11:17:05;;;;;;;11.77;11.27;;;;;;;;;;5078211;28;20107;-66
2023/08/28 11:19:30;;;;;;;11.17;10.67;;;;;;;;;;5077206;28;21018;-66
2023/08/28 11:21:58;;;;;;;11.30;10.80;;;;;;;;;;5077662;28;20314;-65
2023/08/28 11:24:24;;;;;;;11.45;10.95;;;;;;;;;;5078856;28;20024;-70
2023/08/28 11:26:49;;;;;;;11.27;10.77;;;;;;;;;;5075057;28;20510;-70
2023/08/28 11:29:27;;;;;;;11.40;10.90;;;;;;;;;;5078285;28;20012;-69
2023/08/28 11:31:53;;;;;;;11.50;11.00;;;;;;;;;;5077809;28;20658;-70
2023/08/28 11:34:18;;;;;;;11.40;10.90;;;;;;;;;;5083670;28;20073;-70
2023/08/28 11:36:45;;;;;;;11.20;10.70;;;;;;;;;;5079987;28;20086;-67
2023/08/28 11:39:22;;;;;;;11.38;10.88;;;;;;;;;;5082036;28;20085;-67
2023/08/28 11:41:47;;;;;;;11.60;11.10;;;;;;;;;;5082715;28;20537;-67
2023/08/28 11:44:12;;;;;;;11.55;11.05;;;;;;;;;;5077481;28;20063;-64
2023/08/28 11:46:38;;;;;;;11.53;11.03;;;;;;;;;;5078262;28;20506;-67
2023/08/28 11:49:06;;;;;;;11.37;10.87;;;;;;;;;;5073295;28;20261;-67
2023/08/28 11:51:31;;;;;;;11.50;11.00;;;;;;;;;;5075061;28;20269;-68
2023/08/28 11:53:58;;;;;;;11.40;10.90;;;;;;;;;;5076061;28;20020;-67
2023/08/28 11:56:23;;;;;;;11.20;10.70;;;;;;;;;;5073538;28;20116;-67
2023/08/28 11:58:49;;;;;;;11.40;10.90;;;;;;;;;;5071477;28;20487;-67
2023/08/28 12:01:15;;;;;;;11.40;10.90;;;;;;;;;;5080800;28;20804;-66
2023/08/28 12:03:41;;;;;;;11.32;10.82;;;;;;;;;;5076721;28;20044;-65
2023/08/28 12:06:07;;;;;;;11.60;11.10;;;;;;;;;;5078043;28;20107;-66
2023/08/28 12:08:37;;;;;;;11.50;11.00;;;;;;;;;;5073225;28;20422;-64
2023/08/28 12:11:05;;;;;;;11.50;11.00;;;;;;;;;;5080698;28;20411;-65
2023/08/28 12:13:32;;;;;;;11.60;11.10;;;;;;;;;;5074523;28;20538;-66
2023/08/28 12:16:11;;;;;;;11.50;11.00;;;;;;;;;;5076377;28;20086;-64
2023/08/28 12:18:47;;;;;;;11.25;10.75;;;;;;;;;;5080150;28;20697;-67
2023/08/28 12:21:12;;;;;;;11.35;10.85;;;;;;;;;;5079376;28;20070;-67
2023/08/28 12:23:48;;;;;;;11.25;10.75;;;;;;;;;;5081828;28;20047;-67
2023/08/28 12:26:15;;;;;;;11.50;11.00;;;;;;;;;;5079785;28;20035;-65
2023/08/28 12:28:41;;;;;;;11.50;11.00;;;;;;;;;;5081525;28;20046;-65
2023/08/28 12:31:06;;;;;;;11.45;10.95;;;;;;;;;;5073309;28;20422;-68
2023/08/28 12:33:37;;;;;;;11.57;11.07;;;;;;;;;;5075547;28;20029;-67
2023/08/28 12:36:04;;;;;;;11.40;10.90;;;;;;;;;;5082019;28;20383;-67
2023/08/28 12:38:29;;;;;;;11.50;11.00;;;;;;;;;;5080260;28;20030;-66
2023/08/28 12:40:54;;;;;;;11.07;10.57;;;;;;;;;;5081666;28;20434;-66
2023/08/28 12:43:21;;;;;;;11.20;10.70;;;;;;;;;;5079299;28;20760;-67
2023/08/28 12:45:46;;;;;;;11.43;10.93;;;;;;;;;;5081971;28;20024;-68
2023/08/28 12:48:11;;;;;;;11.35;10.85;;;;;;;;;;5075863;28;20101;-67
2023/08/28 12:50:37;;;;;;;11.10;10.60;;;;;;;;;;5080600;28;20051;-65
2023/08/28 12:53:04;;;;;;;11.15;10.65;;;;;;;;;;5077732;28;20355;-66
2023/08/28 12:55:29;;;;;;;11.30;10.80;;;;;;;;;;5080724;28;20031;-67
2023/08/28 12:57:56;;;;;;;11.52;11.02;;;;;;;;;;5073931;28;20024;-67
2023/08/28 13:00:23;;;;;;;11.38;10.88;;;;;;;;;;5077994;28;20102;-67
2023/08/28 13:02:49;;;;;;;11.35;10.85;;;;;;;;;;5077252;28;20056;-66
2023/08/28 13:05:15;;;;;;;11.32;10.82;;;;;;;;;;5078379;28;20385;-65
2023/08/28 13:07:41;;;;;;;11.30;10.80;;;;;;;;;;5077437;28;20035;-68
2023/08/28 13:10:07;;;;;;;11.40;10.90;;;;;;;;;;5081541;28;20511;-67
2023/08/28 13:12:32;;;;;;;11.30;10.80;;;;;;;;;;5078722;28;20028;-65
2023/08/28 13:14:57;;;;;;;11.10;10.60;;;;;;;;;;5086922;28;20028;-67
2023/08/28 13:17:22;;;;;;;11.10;10.60;;;;;;;;;;5081065;28;20276;-67
2023/08/28 13:19:48;;;;;;;11.10;10.60;;;;;;;;;;5083154;28;20296;-66
2023/08/28 13:22:13;;;;;;;11.13;10.63;;;;;;;;;;5074974;28;20389;-66
2023/08/28 13:24:39;;;;;;;11.27;10.77;;;;;;;;;;5077855;28;20276;-67
2023/08/28 13:27:04;;;;;;;10.75;10.25;;;;;;;;;;5082359;28;20020;-65
2023/08/28 13:29:29;;;;;;;11.20;10.70;;;;;;;;;;5080615;28;20164;-66
2023/08/28 13:31:55;;;;;;;11.17;10.67;;;;;;;;;;5082407;28;20051;-67
2023/08/28 13:34:20;;;;;;;11.00;10.50;;;;;;;;;;5079311;28;20032;-65
2023/08/28 13:36:45;;;;;;;11.00;10.50;;;;;;;;;;5081470;28;20487;-66
2023/08/28 13:39:11;;;;;;;11.05;10.55;;;;;;;;;;5081669;28;20273;-64
2023/08/28 13:41:37;;;;;;;11.20;10.70;;;;;;;;;;5081968;28;20046;-64
2023/08/28 13:44:04;;;;;;;11.38;10.88;;;;;;;;;;5083574;28;20043;-64
2023/08/28 13:46:29;;;;;;;11.18;10.68;;;;;;;;;;5077375;28;20028;-66
2023/08/28 13:48:55;;;;;;;11.25;10.75;;;;;;;;;;5083982;28;20021;-67
2023/08/28 13:51:21;;;;;;;11.38;10.88;;;;;;;;;;5077069;28;22399;-66
2023/08/28 13:53:46;;;;;;;11.45;10.95;;;;;;;;;;5080994;28;20062;-65
2023/08/28 13:56:13;;;;;;;11.30;10.80;;;;;;;;;;5082689;28;20024;-65
2023/08/28 13:58:38;;;;;;;11.60;11.10;;;;;;;;;;5083195;28;20024;-65
2023/08/28 14:01:05;;;;;;;11.33;10.83;;;;;;;;;;5079491;28;20044;-66
2023/08/28 14:03:33;;;;;;;11.43;10.93;;;;;;;;;;5077510;28;20296;-67
2023/08/28 14:06:05;;;;;;;11.48;10.98;;;;;;;;;;5078404;28;20420;-68
2023/08/28 14:08:33;;;;;;;11.20;10.70;;;;;;;;;;5077871;28;20360;-68
2023/08/28 14:11:05;;;;;;;11.40;10.90;;;;;;;;;;5078978;28;20103;-68